createdAt,value
2023-04-15T00:00:59.050Z,8.01
2023-04-15T00:01:59.069Z,8.03
2023-04-15T00:02:59.263Z,8.01
2023-04-15T00:03:59.093Z,8.01
2023-04-15T00:04:59.029Z,8.01
2023-04-15T00:05:58.965Z,8.00
2023-04-15T00:06:59.160Z,8.03
2023-04-15T00:07:58.966Z,8.00
2023-04-15T00:08:59.295Z,7.97
2023-04-15T00:09:58.913Z,7.97
2023-04-15T00:10:58.932Z,8.00
2023-04-15T00:11:58.890Z,8.00
2023-04-15T00:12:58.946Z,7.97
2023-04-15T00:13:58.871Z,7.97
2023-04-15T00:14:58.895Z,7.97
2023-04-15T00:15:58.867Z,7.97
2023-04-15T00:16:59.001Z,7.94
2023-04-15T00:17:58.870Z,7.94
2023-04-15T00:18:59.223Z,7.94
2023-04-15T00:19:58.812Z,7.91
2023-04-15T00:20:58.829Z,7.91
2023-04-15T00:21:58.828Z,7.91
2023-04-15T00:22:58.794Z,7.91
2023-04-15T00:23:58.771Z,7.91
2023-04-15T00:24:58.826Z,7.91
2023-04-15T00:25:58.761Z,7.90
2023-04-15T00:26:58.772Z,7.90
2023-04-15T00:27:58.737Z,7.87
2023-04-15T00:28:59.011Z,7.87
2023-04-15T00:29:58.706Z,7.87
2023-04-15T00:30:58.774Z,7.87
2023-04-15T00:31:58.701Z,7.85
2023-04-15T00:32:58.718Z,7.82
2023-04-15T00:33:58.664Z,7.83
2023-04-15T00:34:58.664Z,7.80
2023-04-15T00:35:58.669Z,7.80
2023-04-15T00:36:59.434Z,7.82
2023-04-15T00:37:58.648Z,7.82
2023-04-15T00:38:59.083Z,7.82
2023-04-15T00:39:58.636Z,7.85
2023-04-15T00:40:58.630Z,7.83
2023-04-15T00:41:58.585Z,7.82
2023-04-15T00:42:58.589Z,7.85
2023-04-15T00:43:58.583Z,7.85
2023-04-15T00:44:58.569Z,7.82
2023-04-15T00:45:58.583Z,7.80
2023-04-15T00:46:58.559Z,7.79
2023-04-15T00:47:58.549Z,7.79
2023-04-15T00:48:58.791Z,7.80
2023-04-15T00:49:58.575Z,7.77
2023-04-15T00:50:58.510Z,7.77
2023-04-15T00:51:58.544Z,7.77
2023-04-15T00:52:58.488Z,7.76
2023-04-15T00:53:58.465Z,7.76
2023-04-15T00:54:58.480Z,7.75
2023-04-15T00:55:58.510Z,7.75
2023-04-15T00:56:58.461Z,7.72
2023-04-15T00:57:58.426Z,7.73
2023-04-15T00:58:58.639Z,7.76
2023-04-15T00:59:58.402Z,7.76
2023-04-15T01:00:58.408Z,7.73
2023-04-15T01:01:58.598Z,7.75
2023-04-15T01:02:58.518Z,7.72
2023-04-15T01:03:58.383Z,7.70
2023-04-15T01:04:58.357Z,7.70
2023-04-15T01:05:58.357Z,7.69
2023-04-15T01:06:58.333Z,7.67
2023-04-15T01:07:58.360Z,7.66
2023-04-15T01:08:58.449Z,7.66
2023-04-15T01:09:58.283Z,7.67
2023-04-15T01:10:58.297Z,7.67
2023-04-15T01:11:58.276Z,7.61
2023-04-15T01:12:58.280Z,7.60
2023-04-15T01:13:58.242Z,7.60
2023-04-15T01:14:58.248Z,7.61
2023-04-15T01:15:58.374Z,7.60
2023-04-15T01:16:58.220Z,7.60
2023-04-15T01:17:58.258Z,7.60
2023-04-15T01:18:58.278Z,7.57
2023-04-15T01:19:58.214Z,7.54
2023-04-15T01:20:58.205Z,7.53
2023-04-15T01:21:58.207Z,7.51
2023-04-15T01:22:58.173Z,7.51
2023-04-15T01:23:58.140Z,7.51
2023-04-15T01:24:58.163Z,7.51
2023-04-15T01:25:58.107Z,7.50
2023-04-15T01:26:58.138Z,7.48
2023-04-15T01:27:58.264Z,7.47
2023-04-15T01:28:58.293Z,7.45
2023-04-15T01:29:58.075Z,7.47
2023-04-15T06:00:56.498Z,7.23
2023-04-15T06:01:57.469Z,7.28
2023-04-15T06:02:57.580Z,7.28
2023-04-15T06:03:57.599Z,7.29
2023-04-15T06:04:57.489Z,7.31
2023-04-15T06:05:57.410Z,7.35
2023-04-15T06:06:57.668Z,7.39
2023-04-15T06:07:57.385Z,7.42
2023-04-15T06:08:57.378Z,7.45
2023-04-15T06:09:57.353Z,7.43
2023-04-15T06:10:57.381Z,7.50
2023-04-15T06:11:57.347Z,7.53
2023-04-15T06:12:57.330Z,7.53
2023-04-15T06:13:57.315Z,7.54
2023-04-15T06:14:59.938Z,7.57
2023-04-15T06:15:57.318Z,7.60
2023-04-15T06:16:57.314Z,7.66
2023-04-15T06:17:57.321Z,7.67
2023-04-15T06:18:57.291Z,7.72
2023-04-15T06:19:57.248Z,7.75
2023-04-15T06:20:57.263Z,7.76
2023-04-15T06:21:57.226Z,7.80
2023-04-15T06:22:57.243Z,7.82
2023-04-15T06:23:57.270Z,7.85
2023-04-15T06:24:57.194Z,7.90
2023-04-15T06:25:57.197Z,7.95
2023-04-15T06:26:57.167Z,7.97
2023-04-15T06:27:57.178Z,8.00
2023-04-15T06:28:57.161Z,8.01
2023-04-15T06:29:57.179Z,8.03
2023-04-15T06:30:57.138Z,8.08
2023-04-15T06:31:57.184Z,8.09
2023-04-15T06:32:57.178Z,8.15
2023-04-15T06:33:57.106Z,8.20
2023-04-15T06:34:57.107Z,8.23
2023-04-15T06:35:57.100Z,8.23
2023-04-15T06:36:57.079Z,8.26
2023-04-15T06:37:57.081Z,8.27
2023-04-15T06:38:57.074Z,8.30
2023-04-15T06:39:57.063Z,8.31
2023-04-15T06:40:57.063Z,8.31
2023-04-15T06:41:57.041Z,8.36
2023-04-15T06:42:57.048Z,8.37
2023-04-15T06:43:57.037Z,8.41
2023-04-15T06:44:56.990Z,8.45
2023-04-15T06:45:57.036Z,8.45
2023-04-15T06:46:56.981Z,8.48
2023-04-15T06:47:57.044Z,8.48
2023-04-15T06:48:56.941Z,8.49
2023-04-15T06:49:56.942Z,8.51
2023-04-15T06:50:56.933Z,8.52
2023-04-15T06:51:56.942Z,8.52
2023-04-15T06:52:56.932Z,8.52
2023-04-15T06:53:56.920Z,8.52
2023-04-15T06:54:56.871Z,8.52
2023-04-15T06:55:56.867Z,8.51
2023-04-15T06:56:56.844Z,8.51
2023-04-15T06:57:56.861Z,8.51
2023-04-15T06:58:56.850Z,8.51
2023-04-15T06:59:56.843Z,8.51
2023-04-15T07:00:56.833Z,8.53
2023-04-15T07:01:56.849Z,8.55
2023-04-15T07:02:56.812Z,8.56
2023-04-15T07:03:56.812Z,8.58
2023-04-15T07:04:56.796Z,8.60
2023-04-15T07:05:56.774Z,8.63
2023-04-15T07:06:56.746Z,8.61
2023-04-15T07:07:56.769Z,8.64
2023-04-15T07:08:56.751Z,8.67
2023-04-15T07:09:56.744Z,8.67
2023-04-15T07:10:56.764Z,8.67
2023-04-15T07:11:56.743Z,8.73
2023-04-15T07:12:56.706Z,8.76
2023-04-15T07:13:56.685Z,8.78
2023-04-15T07:14:56.693Z,8.82
2023-04-15T07:15:56.673Z,8.84
2023-04-15T07:16:56.786Z,8.82
2023-04-15T07:17:56.750Z,8.84
2023-04-15T07:18:56.628Z,8.85
2023-04-15T07:19:56.662Z,8.87
2023-04-15T07:20:56.612Z,8.87
2023-04-15T07:21:56.639Z,8.88
2023-04-15T07:22:56.627Z,8.89
2023-04-15T07:23:56.603Z,8.91
2023-04-15T07:24:56.578Z,8.94
2023-04-15T07:25:56.573Z,8.94
2023-04-15T07:26:57.955Z,8.97
2023-04-15T07:27:56.568Z,8.99
2023-04-15T07:28:56.557Z,9.00
2023-04-15T07:29:56.529Z,9.03
2023-04-15T07:30:56.531Z,9.03
2023-04-15T07:31:56.519Z,9.04
2023-04-15T07:32:56.519Z,9.08
2023-04-15T07:33:56.496Z,9.11
2023-04-15T07:34:56.502Z,9.14
2023-04-15T07:35:56.464Z,9.13
2023-04-15T07:36:56.434Z,9.16
2023-04-15T07:37:56.445Z,9.16
2023-04-15T07:38:56.419Z,9.18
2023-04-15T07:39:56.435Z,9.21
2023-04-15T07:40:56.435Z,9.23
2023-04-15T07:41:56.425Z,9.25
2023-04-15T07:42:56.369Z,9.26
2023-04-15T07:43:56.382Z,9.29
2023-04-15T07:44:56.357Z,9.32
2023-04-15T07:45:56.406Z,9.32
2023-04-15T07:46:56.358Z,9.36
2023-04-15T07:47:56.386Z,9.40
2023-04-15T07:48:56.315Z,9.40
2023-04-15T07:49:56.320Z,9.43
2023-04-15T07:50:56.284Z,9.47
2023-04-15T07:51:56.306Z,9.50
2023-04-15T07:52:56.299Z,9.54
2023-04-15T07:53:56.274Z,9.55
2023-04-15T07:54:56.272Z,9.58
2023-04-15T07:55:56.246Z,9.61
2023-04-15T07:56:56.228Z,9.64
2023-04-15T07:57:56.235Z,9.66
2023-04-15T07:58:56.241Z,9.72
2023-04-15T07:59:56.233Z,9.77
2023-04-15T08:00:56.174Z,9.80
2023-04-15T08:01:56.194Z,9.83
2023-04-15T08:02:56.408Z,9.86
2023-04-15T08:03:56.392Z,9.89
2023-04-15T08:04:56.226Z,9.94
2023-04-15T08:05:56.178Z,9.98
2023-04-15T08:06:56.139Z,9.99
2023-04-15T08:07:56.134Z,10.05
2023-04-15T08:08:56.106Z,10.07
2023-04-15T08:09:56.117Z,10.13
2023-04-15T08:10:56.094Z,10.16
2023-04-15T08:11:56.090Z,10.19
2023-04-15T08:12:56.084Z,10.22
2023-04-15T08:13:56.068Z,10.25
2023-04-15T08:14:56.034Z,10.28
2023-04-15T08:15:56.107Z,10.33
2023-04-15T08:16:56.020Z,10.37
2023-04-15T08:17:56.051Z,10.38
2023-04-15T08:18:55.994Z,10.41
2023-04-15T08:19:55.989Z,10.46
2023-04-15T08:20:55.967Z,10.49
2023-04-15T08:21:56.012Z,10.53
2023-04-15T08:22:55.966Z,10.54
2023-04-15T08:23:55.968Z,10.57
2023-04-15T08:24:55.978Z,10.57
2023-04-15T08:25:55.932Z,10.60
2023-04-15T08:26:55.906Z,10.61
2023-04-15T08:27:55.921Z,10.64
2023-04-15T08:28:55.896Z,10.71
2023-04-15T08:29:55.897Z,10.74
2023-04-15T08:30:55.879Z,10.76
2023-04-15T08:31:55.943Z,10.81
2023-04-15T08:32:55.961Z,10.84
2023-04-15T08:33:55.845Z,10.87
2023-04-15T08:34:55.823Z,10.92
2023-04-15T08:35:55.825Z,10.94
2023-04-15T08:36:55.806Z,10.97
2023-04-15T08:37:55.812Z,10.99
2023-04-15T08:38:55.814Z,11.02
2023-04-15T08:39:55.811Z,11.08
2023-04-15T08:40:55.755Z,11.08
2023-04-15T08:41:55.765Z,11.11
2023-04-15T08:42:55.731Z,11.14
2023-04-15T08:43:55.745Z,11.18
2023-04-15T08:44:55.752Z,11.22
2023-04-15T08:45:55.737Z,11.25
2023-04-15T08:46:55.705Z,11.26
2023-04-15T08:47:55.733Z,11.27
2023-04-15T08:48:55.743Z,11.29
2023-04-15T08:49:55.713Z,11.32
2023-04-15T08:50:55.647Z,11.35
2023-04-15T08:51:55.697Z,11.36
2023-04-15T08:52:55.624Z,11.37
2023-04-15T08:53:55.634Z,11.43
2023-04-15T08:54:55.599Z,11.44
2023-04-15T08:55:55.612Z,11.48
2023-04-15T08:56:55.629Z,11.50
2023-04-15T08:57:55.616Z,11.55
2023-04-15T08:58:55.643Z,11.57
2023-04-15T08:59:55.584Z,11.59
2023-04-15T09:00:55.557Z,11.62
2023-04-15T09:01:55.659Z,11.68
2023-04-15T09:02:55.600Z,11.69
2023-04-15T09:03:55.630Z,11.69
2023-04-15T09:04:55.518Z,11.77
2023-04-15T09:05:55.505Z,11.77
2023-04-15T09:06:55.491Z,11.80
2023-04-15T09:07:55.543Z,11.84
2023-04-15T09:08:55.505Z,11.87
2023-04-15T09:09:55.462Z,11.91
2023-04-15T09:10:55.434Z,11.91
2023-04-15T09:11:55.453Z,11.97
2023-04-15T09:12:55.419Z,11.99
2023-04-15T09:13:55.448Z,12.02
2023-04-15T09:14:55.395Z,12.03
2023-04-15T09:15:55.404Z,12.09
2023-04-15T09:16:55.480Z,12.10
2023-04-15T09:17:55.414Z,12.13
2023-04-15T09:18:55.353Z,12.20
2023-04-15T09:19:55.361Z,12.24
2023-04-15T09:20:55.349Z,12.25
2023-04-15T09:21:58.013Z,12.27
2023-04-15T09:22:55.339Z,12.27
2023-04-15T09:23:55.302Z,12.29
2023-04-15T09:24:55.344Z,12.32
2023-04-15T09:25:55.420Z,12.31
2023-04-15T09:26:55.273Z,12.29
2023-04-15T09:27:55.250Z,12.31
2023-04-15T09:28:55.245Z,12.28
2023-04-15T09:29:55.278Z,12.31
2023-04-15T09:30:55.250Z,12.31
2023-04-15T09:31:55.262Z,12.32
2023-04-15T09:32:55.246Z,12.35
2023-04-15T09:33:55.215Z,12.36
2023-04-15T09:34:55.174Z,12.39
2023-04-15T09:35:55.185Z,12.40
2023-04-15T09:36:55.167Z,12.40
2023-04-15T09:37:55.182Z,12.40
2023-04-15T09:38:55.148Z,12.39
2023-04-15T09:39:55.141Z,12.32
2023-04-15T09:40:55.109Z,12.32
2023-04-15T09:41:55.143Z,12.29
2023-04-15T09:42:55.079Z,12.27
2023-04-15T09:43:55.101Z,12.29
2023-04-15T09:44:55.102Z,12.28
2023-04-15T09:45:55.149Z,12.28
2023-04-15T09:46:55.048Z,12.29
2023-04-15T09:47:56.918Z,12.29
2023-04-15T09:48:55.054Z,12.29
2023-04-15T09:49:55.112Z,12.31
2023-04-15T09:50:55.037Z,12.27
2023-04-15T09:52:04.399Z,12.28
2023-04-15T09:52:54.994Z,12.27
2023-04-15T09:53:55.007Z,12.29
2023-04-15T09:54:54.978Z,12.31
2023-04-15T09:55:54.986Z,12.29
2023-04-15T09:56:54.932Z,12.31
2023-04-15T09:57:54.944Z,12.32
2023-04-15T09:58:54.918Z,12.31
2023-04-15T09:59:54.960Z,12.31
2023-04-15T10:00:54.899Z,12.31
2023-04-15T10:01:55.084Z,12.31
2023-04-15T10:02:54.994Z,12.29
2023-04-15T10:03:55.067Z,12.29
2023-04-15T10:04:54.890Z,12.29
2023-04-15T10:05:54.889Z,12.31
2023-04-15T10:06:54.833Z,12.31
2023-04-15T10:07:54.850Z,12.28
2023-04-15T10:08:54.807Z,12.27
2023-04-15T10:09:54.852Z,12.27
2023-04-15T10:10:54.808Z,12.24
2023-04-15T10:11:54.837Z,12.21
2023-04-15T10:12:54.777Z,12.18
2023-04-15T10:13:54.787Z,12.18
2023-04-15T10:14:54.750Z,12.17
2023-04-15T10:15:54.781Z,12.17
2023-04-15T10:16:54.746Z,12.17
2023-04-15T10:17:54.826Z,12.17
2023-04-15T10:18:54.722Z,12.17
2023-04-15T10:19:54.739Z,12.18
2023-04-15T10:20:54.683Z,12.18
2023-04-15T10:21:54.685Z,12.22
2023-04-15T10:22:54.660Z,12.22
2023-04-15T10:23:54.701Z,12.22
2023-04-15T10:24:54.668Z,12.22
2023-04-15T10:25:54.682Z,12.25
2023-04-15T10:26:54.622Z,12.25
2023-04-15T10:27:54.618Z,12.28
2023-04-15T10:28:54.718Z,12.29
2023-04-15T10:29:54.655Z,12.31
2023-04-15T10:30:54.609Z,12.31
2023-04-15T10:31:54.573Z,12.36
2023-04-15T10:32:54.582Z,12.39
2023-04-15T10:33:54.559Z,12.36
2023-04-15T10:34:54.818Z,12.39
2023-04-15T10:35:54.607Z,12.42
2023-04-15T10:36:54.519Z,12.43
2023-04-15T10:37:54.515Z,12.45
2023-04-15T10:38:54.488Z,12.49
2023-04-15T10:39:54.485Z,12.47
2023-04-15T10:40:54.500Z,12.50
2023-04-15T10:41:54.497Z,12.54
2023-04-15T10:42:54.461Z,12.61
2023-04-15T10:43:54.449Z,12.64
2023-04-15T10:44:54.440Z,12.70
2023-04-15T10:45:54.433Z,12.72
2023-04-15T10:46:54.485Z,12.76
2023-04-15T10:47:54.478Z,12.79
2023-04-15T10:48:54.407Z,12.82
2023-04-15T10:49:54.366Z,12.86
2023-04-15T10:50:54.380Z,12.86
2023-04-15T10:51:54.374Z,12.91
2023-04-15T10:52:54.369Z,12.94
2023-04-15T10:53:54.415Z,12.97
2023-04-15T10:54:54.333Z,12.94
2023-04-15T10:55:54.301Z,12.97
2023-04-15T10:56:54.353Z,12.97
2023-04-15T10:57:54.314Z,12.98
2023-04-15T10:58:54.315Z,13.00
2023-04-15T10:59:54.298Z,12.95
2023-04-15T11:00:54.276Z,12.95
2023-04-15T11:01:54.461Z,12.93
2023-04-15T11:02:54.402Z,12.87
2023-04-15T11:03:54.403Z,12.86
2023-04-15T11:04:54.273Z,12.85
2023-04-15T11:05:54.655Z,12.87
2023-04-15T11:06:54.240Z,12.85
2023-04-15T11:07:54.188Z,12.85
2023-04-15T11:08:54.216Z,12.85
2023-04-15T11:09:54.185Z,12.85
2023-04-15T11:10:54.256Z,12.87
2023-04-15T11:11:54.201Z,12.87
2023-04-15T11:12:54.161Z,12.91
2023-04-15T11:13:54.130Z,12.94
2023-04-15T11:14:54.122Z,12.94
2023-04-15T11:15:54.114Z,12.98
2023-04-15T11:16:54.092Z,13.00
2023-04-15T11:17:54.394Z,13.05
2023-04-15T11:18:54.077Z,13.12
2023-04-15T11:19:54.073Z,13.12
2023-04-15T11:20:54.070Z,13.16
2023-04-15T11:21:54.075Z,13.22
2023-04-15T11:23:14.640Z,13.27
2023-04-15T11:23:54.044Z,13.30
2023-04-15T11:24:54.036Z,13.38
2023-04-15T11:25:53.986Z,13.41
2023-04-15T11:26:53.987Z,13.44
2023-04-15T11:27:53.978Z,13.49
2023-04-15T11:28:54.001Z,13.49
2023-04-15T11:29:53.973Z,13.46
2023-04-15T11:30:53.963Z,13.44
2023-04-15T11:31:53.967Z,13.39
2023-04-15T11:32:53.985Z,13.37
2023-04-15T11:33:53.916Z,13.31
2023-04-15T11:34:53.911Z,13.28
2023-04-15T11:35:53.934Z,13.27
2023-04-15T11:36:53.889Z,13.20
2023-04-15T11:37:53.850Z,13.19
2023-04-15T11:38:53.868Z,13.18
2023-04-15T11:39:53.848Z,13.16
2023-04-15T11:40:53.850Z,13.15
2023-04-15T11:41:53.877Z,13.13
2023-04-15T11:42:53.849Z,13.13
2023-04-15T11:43:53.824Z,13.11
2023-04-15T11:44:53.827Z,13.09
2023-04-15T11:45:53.909Z,13.05
2023-04-15T11:46:53.791Z,13.03
2023-04-15T11:47:53.822Z,13.00
2023-04-15T11:48:53.760Z,13.00
2023-04-15T11:49:53.736Z,12.94
2023-04-15T11:50:53.735Z,12.87
2023-04-15T11:51:53.741Z,12.83
2023-04-15T11:52:53.718Z,12.83
2023-04-15T11:53:53.747Z,12.80
2023-04-15T11:54:53.705Z,12.80
2023-04-15T11:55:53.667Z,12.80
2023-04-15T11:56:53.681Z,12.79
2023-04-15T11:57:53.647Z,12.78
2023-04-15T11:58:53.657Z,12.76
2023-04-15T11:59:53.657Z,12.76
2023-04-15T12:00:53.629Z,12.73
2023-04-15T12:01:53.659Z,12.73
2023-04-15T12:02:53.671Z,12.72
2023-04-15T12:03:53.699Z,12.72
2023-04-15T12:04:53.755Z,12.75
2023-04-15T12:05:53.589Z,12.76
2023-04-15T12:06:53.571Z,12.75
2023-04-15T12:07:53.541Z,12.70
2023-04-15T12:08:53.555Z,12.65
2023-04-15T12:09:53.543Z,12.64
2023-04-15T12:10:53.521Z,12.64
2023-04-15T12:11:53.518Z,12.64
2023-04-15T12:12:53.507Z,12.62
2023-04-15T12:13:53.481Z,12.60
2023-04-15T12:14:53.479Z,12.60
2023-04-15T12:15:53.475Z,12.57
2023-04-15T12:16:53.455Z,12.55
2023-04-15T12:17:53.514Z,12.47
2023-04-15T12:18:53.446Z,12.49
2023-04-15T12:19:53.415Z,12.47
2023-04-15T12:20:53.414Z,12.49
2023-04-15T12:21:53.389Z,12.47
2023-04-15T12:22:53.408Z,12.49
2023-04-15T12:23:53.398Z,12.53
2023-04-15T12:24:53.403Z,12.55
2023-04-15T12:25:53.348Z,12.55
2023-04-15T12:26:53.392Z,12.57
2023-04-15T12:27:53.343Z,12.54
2023-04-15T12:28:53.333Z,12.50
2023-04-15T12:29:53.325Z,12.47
2023-04-15T12:30:53.354Z,12.47
2023-04-15T12:31:53.289Z,12.46
2023-04-15T12:32:53.332Z,12.42
2023-04-15T12:33:53.281Z,12.43
2023-04-15T12:34:53.293Z,12.39
2023-04-15T12:35:53.269Z,12.35
2023-04-15T12:36:53.256Z,12.29
2023-04-15T12:37:53.222Z,12.27
2023-04-15T12:38:53.235Z,12.25
2023-04-15T12:39:53.220Z,12.22
2023-04-15T12:40:53.230Z,12.21
2023-04-15T12:41:53.252Z,12.20
2023-04-15T12:42:53.196Z,12.15
2023-04-15T12:43:53.155Z,12.13
2023-04-15T12:44:53.177Z,12.13
2023-04-15T12:45:53.134Z,12.13
2023-04-15T12:46:53.262Z,12.10
2023-04-15T12:47:53.179Z,12.06
2023-04-15T12:48:53.132Z,12.03
2023-04-15T12:49:53.086Z,11.95
2023-04-15T12:50:53.100Z,11.88
2023-04-15T12:51:53.089Z,11.86
2023-04-15T12:52:53.102Z,11.87
2023-04-15T12:53:53.085Z,11.86
2023-04-15T12:54:53.100Z,11.83
2023-04-15T12:55:53.049Z,11.83
2023-04-15T12:56:53.054Z,11.80
2023-04-15T12:57:53.020Z,11.80
2023-04-15T12:58:53.049Z,11.73
2023-04-15T12:59:53.045Z,11.73
2023-04-15T13:00:53.011Z,11.69
2023-04-15T13:01:53.065Z,11.62
2023-04-15T13:02:53.003Z,11.59
2023-04-15T13:03:53.050Z,11.55
2023-04-15T13:04:52.991Z,11.50
2023-04-15T13:05:52.965Z,11.44
2023-04-15T13:06:52.941Z,11.40
2023-04-15T13:07:52.903Z,11.32
2023-04-15T13:08:58.458Z,11.29
2023-04-15T13:09:52.906Z,11.26
2023-04-15T13:10:52.890Z,11.26
2023-04-15T13:11:53.015Z,11.23
2023-04-15T13:12:52.858Z,11.17
2023-04-15T13:13:52.853Z,11.15
2023-04-15T13:14:52.873Z,11.07
2023-04-15T13:15:52.892Z,10.99
2023-04-15T13:16:52.812Z,10.92
2023-04-15T13:17:52.917Z,10.92
2023-04-15T13:18:52.797Z,10.92
2023-04-15T13:19:52.790Z,10.89
2023-04-15T13:20:52.782Z,10.89
2023-04-15T13:21:52.754Z,10.87
2023-04-15T13:22:52.752Z,10.81
2023-04-15T13:23:52.769Z,10.76
2023-04-15T13:24:52.744Z,10.74
2023-04-15T13:25:52.713Z,10.71
2023-04-15T13:26:52.732Z,10.68
2023-04-15T13:27:52.687Z,10.69
2023-04-15T13:28:52.704Z,10.69
2023-04-15T13:29:52.705Z,10.68
2023-04-15T13:30:52.682Z,10.69
2023-04-15T13:31:52.684Z,10.67
2023-04-15T13:32:52.744Z,10.61
2023-04-15T13:33:52.665Z,10.59
2023-04-15T13:34:52.631Z,10.57
2023-04-15T13:35:52.620Z,10.57
2023-04-15T13:36:52.630Z,10.56
2023-04-15T13:37:52.587Z,10.59
2023-04-15T13:38:52.616Z,10.51
2023-04-15T13:39:52.567Z,10.44
2023-04-15T13:40:52.574Z,10.40
2023-04-15T13:41:52.552Z,10.40
2023-04-15T13:42:52.560Z,10.38
2023-04-15T13:43:52.552Z,10.35
2023-04-15T13:44:52.539Z,10.31
2023-04-15T13:45:52.602Z,10.30
2023-04-15T13:46:52.500Z,10.28
2023-04-15T13:47:52.614Z,10.28
2023-04-15T13:48:52.504Z,10.26
2023-04-15T13:49:52.456Z,10.26
2023-04-15T13:50:52.466Z,10.28
2023-04-15T13:51:52.458Z,10.30
2023-04-15T13:52:52.445Z,10.26
2023-04-15T13:53:52.433Z,10.25
2023-04-15T13:55:06.242Z,10.28
2023-04-15T13:55:52.401Z,10.26
2023-04-15T13:56:52.426Z,10.26
2023-04-15T13:57:52.379Z,10.26
2023-04-15T13:58:52.376Z,10.30
2023-04-15T13:59:52.346Z,10.31
2023-04-15T14:00:52.401Z,10.31
2023-04-15T14:01:52.461Z,10.31
2023-04-15T14:02:52.530Z,10.33
2023-04-15T14:03:52.427Z,10.31
2023-04-15T14:04:52.301Z,10.31
2023-04-15T14:05:52.285Z,10.31
2023-04-15T14:06:52.295Z,10.33
2023-04-15T14:07:52.280Z,10.31
2023-04-15T14:08:53.060Z,10.33
2023-04-15T14:09:52.236Z,10.33
2023-04-15T14:10:52.252Z,10.33
2023-04-15T14:11:52.218Z,10.35
2023-04-15T14:12:52.223Z,10.34
2023-04-15T14:13:52.206Z,10.34
2023-04-15T14:14:52.217Z,10.34
2023-04-15T14:15:52.168Z,10.38
2023-04-15T14:16:52.468Z,10.38
2023-04-15T14:17:52.239Z,10.38
2023-04-15T14:18:52.188Z,10.40
2023-04-15T14:19:52.174Z,10.40
2023-04-15T14:20:52.172Z,10.38
2023-04-15T14:21:52.109Z,10.35
2023-04-15T14:22:52.115Z,10.38
2023-04-15T14:23:52.087Z,10.38
2023-04-15T14:24:52.100Z,10.41
2023-04-15T14:25:52.124Z,10.42
2023-04-15T14:26:52.144Z,10.41
2023-04-15T14:27:52.055Z,10.41
2023-04-15T14:28:52.053Z,10.42
2023-04-15T14:29:52.022Z,10.42
2023-04-15T14:30:52.059Z,10.41
2023-04-15T14:32:06.206Z,10.41
2023-04-15T14:32:52.297Z,10.41
2023-04-15T14:33:52.005Z,10.41
2023-04-15T14:34:51.991Z,10.41
2023-04-15T14:35:51.962Z,10.41
2023-04-15T14:36:51.956Z,10.42
2023-04-15T14:37:51.938Z,10.42
2023-04-15T14:38:51.998Z,10.42
2023-04-15T14:39:51.915Z,10.41
2023-04-15T14:40:51.936Z,10.40
2023-04-15T14:41:51.898Z,10.40
2023-04-15T14:42:51.901Z,10.40
2023-04-15T14:43:51.875Z,10.37
2023-04-15T14:44:51.917Z,10.37
2023-04-15T14:45:51.887Z,10.38
2023-04-15T14:46:51.897Z,10.38
2023-04-15T14:47:51.854Z,10.40
2023-04-15T14:48:51.849Z,10.40
2023-04-15T14:49:51.809Z,10.42
2023-04-15T14:50:51.853Z,10.40
2023-04-15T14:51:51.805Z,10.38
2023-04-15T14:52:51.813Z,10.38
2023-04-15T14:53:51.777Z,10.38
2023-04-15T14:54:51.812Z,10.37
2023-04-15T14:55:51.778Z,10.38
2023-04-15T14:56:51.775Z,10.37
2023-04-15T14:57:51.745Z,10.35
2023-04-15T14:58:51.737Z,10.35
2023-04-15T14:59:51.732Z,10.33
2023-04-15T15:00:51.705Z,10.31
2023-04-15T15:01:51.803Z,10.30
2023-04-15T15:02:51.818Z,10.23
2023-04-15T15:03:51.827Z,10.20
2023-04-15T15:04:51.750Z,10.15
2023-04-15T15:05:51.856Z,10.10
2023-04-15T15:06:51.660Z,10.05
2023-04-15T15:07:51.703Z,9.99
2023-04-15T15:08:51.630Z,9.97
2023-04-15T15:09:51.613Z,9.95
2023-04-15T15:10:51.596Z,9.97
2023-04-15T15:11:51.627Z,9.97
2023-04-15T15:12:51.570Z,9.97
2023-04-15T15:13:51.621Z,9.98
2023-04-15T15:14:51.542Z,9.98
2023-04-15T15:15:51.609Z,9.99
2023-04-15T15:16:51.538Z,10.01
2023-04-15T15:17:51.609Z,10.02
2023-04-15T15:18:51.510Z,10.01
2023-04-15T15:19:51.559Z,9.99
2023-04-15T15:20:51.504Z,9.98
2023-04-15T15:21:51.536Z,9.94
2023-04-15T15:22:51.462Z,9.91
2023-04-15T15:23:51.476Z,9.89
2023-04-15T15:24:51.486Z,9.86
2023-04-15T15:25:51.518Z,9.86
2023-04-15T15:26:51.448Z,9.84
2023-04-15T15:27:51.438Z,9.82
2023-04-15T15:28:51.414Z,9.77
2023-04-15T15:29:51.435Z,9.76
2023-04-15T15:30:51.399Z,9.74
2023-04-15T15:31:51.462Z,9.72
2023-04-15T15:32:51.451Z,9.68
2023-04-15T15:33:51.373Z,9.65
2023-04-15T15:34:51.353Z,9.65
2023-04-15T15:35:51.345Z,9.65
2023-04-15T15:36:51.355Z,9.64
2023-04-15T15:37:51.374Z,9.65
2023-04-15T15:38:51.305Z,9.64
2023-04-15T15:39:51.321Z,9.65
2023-04-15T15:40:51.295Z,9.65
2023-04-15T15:41:51.312Z,9.65
2023-04-15T15:42:51.252Z,9.65
2023-04-15T15:43:51.317Z,9.64
2023-04-15T15:44:51.271Z,9.64
2023-04-15T15:45:51.251Z,9.66
2023-04-15T15:46:51.317Z,9.64
2023-04-15T15:47:51.294Z,9.66
2023-04-15T15:48:51.196Z,9.65
2023-04-15T15:49:51.243Z,9.64
2023-04-15T15:50:51.207Z,9.62
2023-04-15T15:51:51.201Z,9.64
2023-04-15T15:52:51.177Z,9.65
2023-04-15T15:53:51.184Z,9.65
2023-04-15T15:54:51.131Z,9.65
2023-04-15T15:55:53.624Z,9.65
2023-04-15T15:56:51.172Z,9.65
2023-04-15T15:57:51.169Z,9.69
2023-04-15T15:58:51.102Z,9.72
2023-04-15T15:59:52.803Z,9.72
2023-04-15T16:00:51.122Z,9.74
2023-04-15T16:01:51.163Z,9.73
2023-04-15T16:03:06.103Z,9.72
2023-04-15T16:03:51.349Z,9.73
2023-04-15T16:04:51.077Z,9.73
2023-04-15T16:05:51.039Z,9.74
2023-04-15T16:06:51.002Z,9.73
2023-04-15T16:07:51.004Z,9.74
2023-04-15T16:08:51.050Z,9.73
2023-04-15T16:09:51.013Z,9.73
2023-04-15T16:10:50.989Z,9.74
2023-04-15T16:11:50.980Z,9.76
2023-04-15T16:12:50.950Z,9.74
2023-04-15T16:13:50.942Z,9.77
2023-04-15T16:14:50.972Z,9.77
2023-04-15T16:15:50.941Z,9.79
2023-04-15T16:16:51.034Z,9.79
2023-04-15T16:17:50.953Z,9.80
2023-04-15T16:18:50.880Z,9.79
2023-04-15T16:19:57.897Z,9.80
2023-04-15T16:20:50.885Z,9.77
2023-04-15T16:21:50.898Z,9.76
2023-04-15T16:22:50.845Z,9.79
2023-04-15T16:23:50.844Z,9.80
2023-04-15T16:24:50.840Z,9.82
2023-04-15T16:25:50.825Z,9.79
2023-04-15T16:26:50.867Z,9.79
2023-04-15T16:28:03.111Z,9.79
2023-04-15T16:28:50.785Z,9.79
2023-04-15T16:29:50.789Z,9.80
2023-04-15T16:30:50.751Z,9.82
2023-04-15T16:31:50.815Z,9.80
2023-04-15T16:32:50.768Z,9.80
2023-04-15T16:33:50.760Z,9.82
2023-04-15T16:34:50.726Z,9.83
2023-04-15T16:35:50.739Z,9.82
2023-04-15T16:36:50.776Z,9.82
2023-04-15T16:37:50.711Z,9.83
2023-04-15T16:38:50.707Z,9.83
2023-04-15T16:39:50.685Z,9.82
2023-04-15T16:40:50.663Z,9.82
2023-04-15T16:41:50.638Z,9.79
2023-04-15T16:42:50.651Z,9.80
2023-04-15T16:43:50.646Z,9.80
2023-04-15T16:44:50.638Z,9.79
2023-04-15T16:45:50.807Z,9.77
2023-04-15T16:46:50.605Z,9.79
2023-04-15T16:47:50.634Z,9.79
2023-04-15T16:48:50.577Z,9.77
2023-04-15T16:49:50.587Z,9.80
2023-04-15T16:50:50.578Z,9.79
2023-04-15T16:51:50.569Z,9.80
2023-04-15T16:52:50.540Z,9.79
2023-04-15T16:53:50.546Z,9.80
2023-04-15T16:54:50.488Z,9.79
2023-04-15T16:55:50.504Z,9.79
2023-04-15T16:56:50.492Z,9.79
2023-04-15T16:58:02.670Z,9.79
2023-04-15T16:58:50.462Z,9.79
2023-04-15T16:59:50.503Z,9.79
2023-04-15T17:00:50.464Z,9.77
2023-04-15T17:01:50.481Z,9.79
2023-04-15T17:02:50.645Z,9.77
2023-04-15T17:03:50.541Z,9.77
2023-04-15T17:04:50.408Z,9.73
2023-04-15T17:05:50.393Z,9.73
2023-04-15T17:06:50.365Z,9.69
2023-04-15T17:07:50.368Z,9.69
2023-04-15T17:08:50.363Z,9.68
2023-04-15T17:09:50.353Z,9.66
2023-04-15T17:10:50.326Z,9.66
2023-04-15T17:11:50.355Z,9.66
2023-04-15T17:12:50.312Z,9.65
2023-04-15T17:13:50.306Z,9.65
2023-04-15T17:14:50.299Z,9.65
2023-04-15T17:15:50.334Z,9.65
2023-04-15T17:16:50.293Z,9.68
2023-04-15T17:17:50.349Z,9.68
2023-04-15T17:18:50.253Z,9.68
2023-04-15T17:19:50.258Z,9.68
2023-04-15T17:20:50.239Z,9.68
2023-04-15T17:21:50.260Z,9.66
2023-04-15T17:22:50.199Z,9.65
2023-04-15T17:23:50.243Z,9.66
2023-04-15T17:24:50.169Z,9.68
2023-04-15T17:25:50.196Z,9.72
2023-04-15T17:26:50.212Z,9.68
2023-04-15T17:27:50.167Z,9.72
2023-04-15T17:28:50.138Z,9.68
2023-04-15T17:29:50.152Z,9.69
2023-04-15T17:30:50.138Z,9.69
2023-04-15T17:31:50.119Z,9.72
2023-04-15T17:32:50.162Z,9.69
2023-04-15T17:34:02.770Z,9.68
2023-04-15T17:34:51.403Z,9.66